Time;durP1;ratioP1;P1;durP2;ratioP2;P2;SDS_P1;SDS_P2;PMS_P1;PMS_P2;Temp;Humidity;BMP_temperature;BMP_pressure;BME280_temperature;BME280_humidity;BME280_pressure;Samples;Min_cycle;Max_cycle;Signal;HPM_P1;HPM_P2
2021/11/09 00:02:25;;;;;;;38.20;20.90;;;;;;;7.21;67.26;99594.64;113529;1193;99563;-70
2021/11/09 00:04:55;;;;;;;34.80;18.40;;;;;;;7.22;67.28;99599.39;113460;1193;112629;-71
2021/11/09 00:07:31;;;;;;;38.70;21.20;;;;;;;7.21;67.49;99602.42;113493;1192;98864;-72
2021/11/09 00:09:59;;;;;;;37.30;20.30;;;;;;;7.19;67.45;99599.52;113510;1193;105866;-71
2021/11/09 00:12:43;;;;;;;35.10;18.90;;;;;;;7.19;67.55;99598.27;113525;1193;96360;-72
2021/11/09 00:15:17;;;;;;;34.20;19.00;;;;;;;7.19;67.51;99601.83;113538;1186;96405;-71
2021/11/09 00:17:48;;;;;;;;;;;;;;;7.19;67.54;99601.48;113543;1192;112557;-72
2021/11/09 00:20:20;;;;;;;33.00;17.70;;;;;;;7.17;67.66;99601.72;113546;1193;98908;-71
2021/11/09 00:22:51;;;;;;;36.30;18.50;;;;;;;7.17;67.42;99608.09;113440;1193;107520;-72
2021/11/09 00:25:23;;;;;;;35.50;19.40;;;;;;;7.17;67.57;99611.61;113391;1193;99621;-74
2021/11/09 00:27:53;;;;;;;38.80;21.10;;;;;;;7.18;67.59;99614.19;113504;1192;99010;-73
2021/11/09 00:30:25;;;;;;;38.00;19.60;;;;;;;7.19;67.61;99616.45;113470;1192;112504;-72
2021/11/09 00:32:56;;;;;;;38.60;20.40;;;;;;;7.18;67.61;99617.06;113531;1193;99014;-72
2021/11/09 00:35:29;;;;;;;36.80;21.10;;;;;;;7.18;67.65;99618.11;113520;1193;106590;-71
2021/11/09 00:38:02;;;;;;;37.00;21.90;;;;;;;7.17;67.73;99622.70;113536;1192;99005;-72
2021/11/09 00:40:35;;;;;;;35.30;20.20;;;;;;;7.18;67.88;99622.84;113538;1192;96453;-73
2021/11/09 00:43:07;;;;;;;;;;;;;;;7.20;67.87;99624.17;113531;1193;112541;-71
2021/11/09 00:45:37;;;;;;;34.80;18.50;;;;;;;7.18;67.75;99633.96;113442;1193;98975;-71
2021/11/09 00:48:08;;;;;;;36.90;20.30;;;;;;;7.17;67.87;99632.59;113426;1193;107570;-70
2021/11/09 00:50:39;;;;;;;36.30;20.50;;;;;;;7.17;67.90;99633.16;113458;1192;98896;-71
2021/11/09 00:53:12;;;;;;;35.50;20.50;;;;;;;7.16;67.61;99635.66;113406;1194;99351;-72
2021/11/09 00:55:42;;;;;;;38.50;21.20;;;;;;;7.15;67.87;99636.95;113367;1193;112528;-72
2021/11/09 00:58:13;;;;;;;39.30;20.70;;;;;;;7.17;67.90;99636.48;113449;1193;98987;-73
2021/11/09 01:00:44;;;;;;;37.90;20.50;;;;;;;7.18;68.06;99636.23;113510;1193;107690;-70
2021/11/09 01:03:14;;;;;;;36.10;19.00;;;;;;;7.19;67.88;99636.04;113451;1193;99002;-71
2021/11/09 01:05:45;;;;;;;33.60;19.70;;;;;;;7.19;67.95;99636.90;113405;1192;99062;-73
2021/11/09 01:08:18;;;;;;;36.70;21.10;;;;;;;7.19;67.99;99636.55;113467;1193;112503;-71
2021/11/09 01:10:51;;;;;;;35.90;20.00;;;;;;;7.20;68.04;99637.57;113429;1192;98900;-71
2021/11/09 01:13:24;;;;;;;32.10;18.50;;;;;;;7.23;67.93;99639.89;113527;1192;107386;-71
2021/11/09 01:15:57;;;;;;;33.20;18.40;;;;;;;7.24;68.07;99644.27;113406;1193;99058;-70
2021/11/09 01:18:37;;;;;;;35.50;19.90;;;;;;;7.21;67.97;99643.19;113492;1192;96484;-71
2021/11/09 01:21:13;;;;;;;36.30;19.60;;;;;;;7.18;68.14;99643.85;113465;1193;112848;-72
2021/11/09 01:23:49;;;;;;;36.60;20.90;;;;;;;7.16;68.03;99648.14;113440;1193;99594;-69
2021/11/09 01:26:20;;;;;;;38.80;22.20;;;;;;;7.14;68.24;99647.92;113466;1193;107526;-68
2021/11/09 01:28:52;;;;;;;36.70;20.10;;;;;;;7.12;68.26;99645.36;113389;1193;97823;-67
2021/11/09 01:31:23;;;;;;;35.60;20.90;;;;;;;7.10;68.28;99644.20;113564;1193;98910;-72
2021/11/09 01:33:54;;;;;;;37.90;22.30;;;;;;;7.08;68.43;99645.39;113505;1192;112611;-72
2021/11/09 01:36:24;;;;;;;39.70;22.70;;;;;;;7.08;68.51;99644.16;113397;1192;97472;-71
2021/11/09 01:38:52;;;;;;;37.30;21.10;;;;;;;7.09;68.43;99643.77;113527;1193;106646;-71
2021/11/09 01:41:20;;;;;;;42.90;23.50;;;;;;;7.09;68.39;99641.47;113553;1193;99051;-73
2021/11/09 01:43:51;;;;;;;38.30;22.00;;;;;;;7.10;68.58;99644.25;113552;1192;99015;-73
2021/11/09 01:46:21;;;;;;;36.60;22.50;;;;;;;7.11;68.69;99642.40;113545;1192;112511;-72
2021/11/09 01:48:52;;;;;;;43.70;23.20;;;;;;;7.11;68.61;99650.16;113526;1193;96919;-71
2021/11/09 01:51:23;;;;;;;36.70;22.00;;;;;;;7.09;68.64;99649.20;113534;1192;107556;-71
2021/11/09 01:53:55;;;;;;;38.00;23.00;;;;;;;7.09;68.76;99648.52;113521;1192;99005;-70
2021/11/09 01:56:28;;;;;;;42.40;22.20;;;;;;;7.10;68.78;99648.12;113558;1192;98933;-70
2021/11/09 01:58:59;;;;;;;40.50;23.30;;;;;;;7.10;68.65;99647.24;113421;1193;112516;-70
2021/11/09 02:01:30;;;;;;;37.90;22.50;;;;;;;7.08;68.60;99650.50;113482;1193;98974;-70
2021/11/09 02:04:03;;;;;;;39.70;23.10;;;;;;;7.07;68.73;99657.61;113401;1192;107165;-71
2021/11/09 02:06:33;;;;;;;43.20;22.60;;;;;;;7.08;68.82;99657.02;113495;1192;97487;-71
2021/11/09 02:09:12;;;;;;;36.40;20.20;;;;;;;7.08;68.59;99656.67;113498;1192;98924;-70
2021/11/09 02:11:42;;;;;;;38.20;22.30;;;;;;;7.06;68.59;99660.99;113528;1192;112523;-70
2021/11/09 02:14:14;;;;;;;38.50;22.40;;;;;;;7.05;68.84;99661.91;113531;1193;98991;-71
2021/11/09 02:16:45;;;;;;;38.10;21.50;;;;;;;7.07;68.85;99660.44;113450;1192;107967;-70
2021/11/09 02:19:13;;;;;;;35.70;20.10;;;;;;;7.06;68.81;99662.92;113514;1192;98933;-71
2021/11/09 02:21:41;;;;;;;39.30;20.50;;;;;;;7.04;68.66;99667.65;113573;1192;98978;-71
2021/11/09 02:24:09;;;;;;;39.80;21.60;;;;;;;7.01;69.00;99667.42;113445;1192;112462;-69
2021/11/09 02:26:39;;;;;;;38.90;22.80;;;;;;;7.03;69.33;99667.33;113528;1192;98996;-72
2021/11/09 02:29:42;;;;;;;37.20;22.10;;;;;;;7.10;69.03;99666.61;100780;1346;635885;-72
2021/11/09 02:32:12;;;;;;;37.90;22.20;;;;;;;7.11;69.16;99667.66;102450;1327;94275;-71
2021/11/09 02:34:40;;;;;;;35.40;20.60;;;;;;;7.10;69.14;99668.55;102469;1329;94020;-71
2021/11/09 02:37:08;;;;;;;38.10;20.90;;;;;;;7.09;68.90;99671.98;102475;1327;107451;-71
2021/11/09 02:39:36;;;;;;;33.50;20.20;;;;;;;7.07;69.29;99674.17;102466;1326;94328;-71
2021/11/09 02:42:13;;;;;;;34.10;20.20;;;;;;;7.08;69.14;99672.04;102398;1327;122579;-71
2021/11/09 02:45:02;;;;;;;33.60;19.20;;;;;;;7.08;69.37;99673.25;102735;1327;94108;-71
2021/11/09 02:47:47;;;;;;;33.40;18.20;;;;;;;7.08;69.06;99678.00;102751;1323;94301;-70
2021/11/09 02:50:20;;;;;;;34.60;19.90;;;;;;;7.05;69.32;99676.91;102731;1323;107457;-72
2021/11/09 02:52:56;;;;;;;31.10;17.90;;;;;;;7.04;69.23;99682.95;102720;1323;93884;-71
2021/11/09 02:55:34;;;;;;;33.80;19.50;;;;;;;7.04;69.44;99682.80;102600;1328;107807;-72
2021/11/09 03:03:40;;;;;;;36.30;21.40;;;;;;;7.01;69.47;99695.27;102944;1326;107317;-71
2021/11/09 03:11:27;;;;;;;36.30;20.30;;;;;;;7.01;69.51;99703.75;102799;1324;94302;-72
2021/11/09 03:13:56;;;;;;;35.90;20.00;;;;;;;6.99;69.45;99704.35;102847;1323;94461;-72
2021/11/09 03:16:33;;;;;;;38.80;23.00;;;;;;;6.99;69.62;99706.31;102748;1327;107907;-72
2021/11/09 03:19:22;;;;;;;39.50;22.70;;;;;;;6.97;69.60;99707.61;102839;1323;95255;-71
2021/11/09 03:47:11;;;;;;;43.80;25.00;;;;;;;6.95;70.23;99725.19;102895;1323;94253;-72
2021/11/09 03:49:42;;;;;;;40.80;24.60;;;;;;;6.94;70.30;99721.83;102960;1324;106592;-74
2021/11/09 03:52:18;;;;;;;41.10;25.00;;;;;;;6.96;70.04;99721.44;102790;1323;95197;-73
2021/11/09 03:54:48;;;;;;;43.40;26.10;;;;;;;6.92;69.96;99723.02;102753;1323;95175;-73
2021/11/09 03:57:29;;;;;;;45.00;27.20;;;;;;;6.90;70.16;99721.73;102745;1324;110853;-74
2021/11/09 04:02:42;;;;;;;43.30;25.30;;;;;;;6.87;70.19;99720.61;102668;1329;107833;-73
2021/11/09 04:05:18;;;;;;;46.30;27.20;;;;;;;6.85;70.01;99721.04;102942;1320;95124;-74
2021/11/09 04:08:01;;;;;;;47.10;27.40;;;;;;;6.83;70.36;99725.19;102984;1320;95293;-75
2021/11/09 04:10:39;;;;;;;44.80;27.30;;;;;;;6.83;70.28;99725.02;102889;1320;106746;-71
2021/11/09 04:13:31;;;;;;;45.60;27.80;;;;;;;6.82;70.31;99728.59;103008;1320;95226;-72
2021/11/09 05:09:30;;;;;;;45.10;25.90;;;;;;;6.93;70.83;99780.27;103124;1317;107819;-70
2021/11/09 05:12:02;;;;;;;46.80;25.10;;;;;;;6.94;71.22;99785.00;103130;1316;94248;-72
2021/11/09 05:14:33;;;;;;;46.50;27.10;;;;;;;6.96;71.12;99787.55;103164;1317;95201;-72
2021/11/09 05:17:03;;;;;;;43.40;25.90;;;;;;;6.96;70.94;99792.27;103159;1320;108563;-72
2021/11/09 05:19:31;;;;;;;42.70;24.60;;;;;;;6.97;71.06;99796.68;103161;1316;95112;-74
2021/11/09 05:22:05;;;;;;;45.60;27.00;;;;;;;6.97;71.33;99802.85;103140;1321;107751;-75
2021/11/09 05:24:42;;;;;;;42.00;24.60;;;;;;;6.97;70.98;99807.62;103146;1316;95285;-77
2021/11/09 05:27:16;;;;;;;44.50;25.80;;;;;;;6.93;71.13;99810.95;103164;1316;95192;-76
2021/11/09 05:29:47;;;;;;;42.30;23.90;;;;;;;6.93;71.15;99815.02;103163;1316;108472;-76
2021/11/09 05:32:15;;;;;;;43.60;25.40;;;;;;;6.94;71.22;99823.27;103130;1316;95888;-76
2021/11/09 05:34:45;;;;;;;46.50;25.70;;;;;;;6.92;71.28;99827.06;103176;1317;109359;-74
2021/11/09 05:37:20;;;;;;;44.00;24.70;;;;;;;6.93;71.30;99832.64;103203;1317;94261;-75
2021/11/09 05:39:55;;;;;;;40.90;23.30;;;;;;;6.94;71.47;99837.16;103236;1317;95288;-72
2021/11/09 05:42:24;;;;;;;43.20;24.50;;;;;;;6.95;71.40;99840.68;103062;1317;108434;-70
2021/11/09 05:44:54;;;;;;;44.60;26.00;;;;;;;6.96;71.50;99850.15;102928;1317;95300;-70
2021/11/09 05:47:22;;;;;;;48.10;28.00;;;;;;;6.97;71.43;99851.34;102954;1316;107803;-72
2021/11/09 05:49:50;;;;;;;47.00;29.10;;;;;;;6.98;71.47;99855.33;103160;1317;95195;-72
2021/11/09 05:52:17;;;;;;;46.40;28.50;;;;;;;6.99;71.28;99857.44;103047;1316;94790;-73
2021/11/09 05:54:46;;;;;;;44.80;27.10;;;;;;;6.99;71.58;99863.05;103144;1316;108809;-73
2021/11/09 05:57:16;;;;;;;41.80;24.40;;;;;;;6.99;71.49;99870.99;103083;1317;95891;-72
2021/11/09 05:59:44;;;;;;;41.20;23.30;;;;;;;7.00;71.68;99876.77;103135;1323;107889;-74
2021/11/09 06:02:12;;;;;;;42.90;24.00;;;;;;;7.02;71.53;99878.65;103160;1317;95220;-72
2021/11/09 06:04:52;;;;;;;44.10;25.20;;;;;;;7.04;71.65;99884.39;103226;1320;95162;-71
2021/11/09 06:07:22;;;;;;;45.30;25.20;;;;;;;7.05;71.56;99891.02;103225;1317;108784;-73
2021/11/09 06:09:53;;;;;;;43.70;24.60;;;;;;;7.06;71.61;99897.65;103191;1317;95208;-72
2021/11/09 06:12:21;;;;;;;42.90;23.70;;;;;;;7.10;71.64;99898.21;103168;1317;108913;-71
2021/11/09 06:14:48;;;;;;;37.40;21.60;;;;;;;7.11;71.52;99902.90;103228;1317;95255;-72
2021/11/09 06:17:16;;;;;;;38.20;21.80;;;;;;;7.11;71.73;99907.15;103024;1323;95196;-73
2021/11/09 06:19:44;;;;;;;36.80;21.40;;;;;;;7.13;71.70;99910.60;103523;1313;108745;-73
2021/11/09 06:22:15;;;;;;;37.70;21.10;;;;;;;7.13;71.70;99914.45;103377;1313;94658;-73
2021/11/09 06:24:43;;;;;;;36.80;20.20;;;;;;;7.14;71.74;99916.89;103387;1314;108744;-73
2021/11/09 06:27:15;;;;;;;37.40;20.10;;;;;;;7.14;71.60;99924.30;103474;1313;95174;-74
2021/11/09 06:29:43;;;;;;;39.00;21.00;;;;;;;7.13;71.66;99929.64;103498;1314;94311;-72
2021/11/09 06:32:11;;;;;;;38.00;21.30;;;;;;;7.12;71.87;99934.98;103422;1320;108786;-73
2021/11/09 06:34:38;;;;;;;38.50;21.30;;;;;;;7.14;71.99;99942.11;103402;1313;95413;-73
2021/11/09 06:37:09;;;;;;;40.00;21.50;;;;;;;7.16;71.98;99944.48;103464;1313;107802;-73
2021/11/09 06:39:37;;;;;;;37.60;21.30;;;;;;;7.19;72.05;99945.09;103502;1317;95281;-72
2021/11/09 06:42:11;;;;;;;36.10;21.10;;;;;;;7.21;72.03;99953.46;103475;1314;94276;-72
2021/11/09 06:44:39;;;;;;;37.90;20.50;;;;;;;7.23;72.11;99957.61;103267;1320;108840;-72
2021/11/09 06:47:07;;;;;;;38.90;21.60;;;;;;;7.24;71.92;99964.23;103448;1314;94234;-72
2021/11/09 06:49:35;;;;;;;38.00;20.90;;;;;;;7.24;71.74;99971.30;103406;1313;107846;-73
2021/11/09 06:52:10;;;;;;;42.40;23.90;;;;;;;7.25;72.01;99973.90;103183;1320;96521;-72
2021/11/09 06:54:37;;;;;;;38.40;21.60;;;;;;;7.27;72.23;99979.30;103373;1314;94416;-72
2021/11/09 06:57:05;;;;;;;43.20;23.20;;;;;;;7.29;72.05;99982.72;103415;1313;110148;-72
2021/11/09 06:59:33;;;;;;;41.50;22.70;;;;;;;7.30;72.02;99985.68;103409;1314;96669;-72
2021/11/09 07:02:07;;;;;;;39.10;23.40;;;;;;;7.33;72.25;99990.16;103168;1319;107815;-72
2021/11/09 07:04:35;;;;;;;38.40;21.30;;;;;;;7.33;72.25;99994.55;103521;1314;94314;-73
2021/11/09 07:07:09;;;;;;;39.80;23.20;;;;;;;7.35;72.14;100003.83;103483;1313;96545;-72
2021/11/09 07:09:37;;;;;;;45.90;24.20;;;;;;;7.36;72.07;100006.96;103541;1313;110041;-72
2021/11/09 07:12:10;;;;;;;40.80;22.90;;;;;;;7.36;72.24;100012.94;103526;1313;96651;-73
2021/11/09 07:14:38;;;;;;;42.00;23.40;;;;;;;7.36;72.21;100015.23;103478;1313;107808;-73
2021/11/09 07:17:07;;;;;;;42.60;23.50;;;;;;;7.38;72.30;100018.35;103427;1313;96606;-73
2021/11/09 07:19:41;;;;;;;42.80;23.30;;;;;;;7.39;72.14;100023.24;103200;1317;96526;-72
2021/11/09 07:22:09;;;;;;;42.60;23.30;;;;;;;7.39;72.13;100027.66;103362;1314;110245;-72
2021/11/09 07:24:39;;;;;;;40.20;23.10;;;;;;;7.38;72.16;100034.05;103243;1312;96551;-73
2021/11/09 07:27:10;;;;;;;42.00;22.70;;;;;;;7.35;72.34;100037.88;103362;1316;107912;-72
2021/11/09 07:29:44;;;;;;;40.80;21.50;;;;;;;7.36;72.20;100041.90;103414;1313;96509;-74
2021/11/09 07:32:17;;;;;;;39.60;22.50;;;;;;;7.36;72.28;100042.77;103310;1313;94549;-73
2021/11/09 07:34:45;;;;;;;41.30;23.90;;;;;;;7.34;72.13;100047.12;103413;1313;108951;-73
2021/11/09 07:37:16;;;;;;;41.30;22.60;;;;;;;7.34;72.34;100055.02;103453;1313;96558;-72
2021/11/09 07:39:47;;;;;;;40.60;22.40;;;;;;;7.36;72.28;100057.25;103203;1316;107798;-72
2021/11/09 07:42:18;;;;;;;38.50;20.90;;;;;;;7.36;72.53;100058.48;103207;1314;95888;-74
2021/11/09 07:44:47;;;;;;;40.10;21.00;;;;;;;7.37;72.43;100065.31;103414;1313;96532;-74
2021/11/09 07:47:24;;;;;;;40.10;21.30;;;;;;;7.37;72.63;100065.83;103324;1317;110353;-74
2021/11/09 07:49:55;;;;;;;35.40;19.00;;;;;;;7.40;72.80;100072.58;103376;1317;96619;-73
2021/11/09 07:52:26;;;;;;;34.20;19.10;;;;;;;7.42;72.66;100073.38;103397;1313;107813;-73
2021/11/09 07:54:59;;;;;;;37.90;21.10;;;;;;;7.44;72.25;100081.09;103385;1313;95617;-73
2021/11/09 07:57:34;;;;;;;40.40;22.00;;;;;;;7.41;72.33;100085.27;103428;1313;97157;-72
2021/11/09 08:00:20;;;;;;;39.10;21.00;;;;;;;7.38;72.49;100091.94;103369;1320;110155;-72
2021/11/09 08:08:15;;;;;;;33.10;18.70;;;;;;;7.33;72.68;100113.66;103377;1313;96528;-73
2021/11/09 08:10:47;;;;;;;39.70;19.00;;;;;;;7.36;72.80;100122.16;103383;1317;96516;-72
2021/11/09 08:13:15;;;;;;;33.90;17.60;;;;;;;7.40;72.75;100123.61;103392;1313;110159;-71
2021/11/09 08:15:46;;;;;;;37.30;20.30;;;;;;;7.41;72.79;100127.79;103398;1313;96536;-73
2021/11/09 08:18:16;;;;;;;33.80;16.80;;;;;;;7.43;72.61;100132.80;103392;1314;107624;-73
2021/11/09 08:21:04;;;;;;;32.00;18.00;;;;;;;7.45;72.77;100134.70;103138;1316;96622;-72
2021/11/09 08:23:32;;;;;;;38.50;20.40;;;;;;;7.47;72.76;100141.48;103370;1314;97077;-73
2021/11/09 08:26:03;;;;;;;37.50;20.30;;;;;;;7.51;72.91;100142.73;103263;1316;110123;-73
2021/11/09 08:28:34;;;;;;;40.20;20.20;;;;;;;7.56;72.78;100147.61;103198;1313;94987;-72
2021/11/09 08:31:07;;;;;;;33.10;18.50;;;;;;;7.60;72.95;100150.11;103175;1314;107836;-73
2021/11/09 08:33:37;;;;;;;40.00;21.30;;;;;;;7.63;72.90;100152.64;103368;1314;95685;-74
2021/11/09 08:36:09;;;;;;;27.30;13.60;;;;;;;7.66;72.81;100160.63;103404;1316;96527;-73
2021/11/09 08:38:42;;;;;;;27.10;13.20;;;;;;;7.70;72.85;100165.05;103403;1314;109140;-73
2021/11/09 08:41:12;;;;;;;25.20;12.80;;;;;;;7.74;72.77;100173.85;103308;1313;98504;-73
2021/11/09 08:43:55;;;;;;;26.00;13.00;;;;;;;7.78;72.72;100178.31;103462;1319;106787;-72
2021/11/09 08:46:36;;;;;;;24.40;11.20;;;;;;;7.80;72.84;100183.50;103437;1313;94997;-72
2021/11/09 08:49:09;;;;;;;24.40;11.70;;;;;;;7.80;72.59;100192.48;103391;1320;96545;-72
2021/11/09 08:51:43;;;;;;;23.70;11.30;;;;;;;7.79;72.75;100197.89;103279;1313;110076;-72
2021/11/09 08:54:23;;;;;;;23.40;10.10;;;;;;;7.74;72.52;100200.87;103160;1316;94392;-73
2021/11/09 09:05:15;;;;;;;20.00;9.00;;;;;;;7.60;72.68;100214.72;103362;1314;111063;-72
2021/11/09 09:07:43;;;;;;;16.40;7.30;;;;;;;7.55;72.53;100219.17;103171;1320;96606;-74
2021/11/09 09:10:17;;;;;;;20.40;8.10;;;;;;;7.52;72.58;100224.77;103163;1317;107767;-74
2021/11/09 09:12:49;;;;;;;19.80;8.70;;;;;;;7.51;72.64;100230.48;103154;1319;96594;-75
2021/11/09 09:15:18;;;;;;;16.60;8.20;;;;;;;7.49;72.81;100233.71;103351;1313;94516;-74
2021/11/09 09:17:51;;;;;;;22.80;9.10;;;;;;;7.49;72.94;100235.86;103219;1316;110173;-74
2021/11/09 09:20:26;;;;;;;20.00;8.70;;;;;;;7.51;72.83;100237.88;103253;1320;94251;-72
2021/11/09 09:56:01;;;;;;;12.00;4.40;;;;;;;7.72;72.92;100279.92;103144;1320;96570;-73
2021/11/09 09:58:39;;;;;;;9.80;4.70;;;;;;;7.73;73.03;100281.63;103134;1320;110404;-73
2021/11/09 10:01:06;;;;;;;11.50;4.70;;;;;;;7.77;72.82;100286.92;103175;1316;96612;-74
2021/11/09 10:03:43;;;;;;;12.50;4.70;;;;;;;7.79;72.85;100288.42;103228;1316;107847;-73
2021/11/09 10:06:11;;;;;;;9.40;4.30;;;;;;;7.81;72.89;100291.72;103131;1316;96580;-73
2021/11/09 10:08:47;;;;;;;10.30;4.60;;;;;;;7.83;72.99;100295.52;103135;1315;96541;-74
2021/11/09 10:11:48;;;;;;;12.80;4.90;;;;;;;7.87;72.79;100296.97;103160;1314;110155;-72
2021/11/09 10:14:37;;;;;;;9.50;4.00;;;;;;;7.92;72.73;100298.16;102977;1316;96884;-74
2021/11/09 10:17:14;;;;;;;13.50;5.20;;;;;;;7.96;72.75;100298.15;103075;1316;107883;-74
2021/11/09 10:19:46;;;;;;;11.00;4.10;;;;;;;8.01;72.73;100300.07;103271;1313;97160;-76
2021/11/09 10:22:23;;;;;;;11.40;4.90;;;;;;;8.06;72.71;100306.41;103109;1319;96773;-73
2021/11/09 10:24:57;;;;;;;12.50;5.10;;;;;;;8.10;72.87;100312.06;103104;1319;110142;-73
2021/11/09 10:27:28;;;;;;;37.50;21.00;;;;;;;8.13;72.83;100314.42;103230;1314;96648;-73
2021/11/09 10:29:59;;;;;;;24.90;10.50;;;;;;;8.12;72.91;100317.10;103234;1320;105885;-72
2021/11/09 10:32:31;;;;;;;13.80;5.60;;;;;;;8.12;72.68;100321.52;103321;1313;96517;-72
2021/11/09 10:35:08;;;;;;;13.60;4.90;;;;;;;8.09;72.64;100326.08;103084;1317;95634;-74
2021/11/09 10:37:38;;;;;;;;;;;;;;;8.08;72.81;100329.65;103311;1314;110227;-73
2021/11/09 10:40:21;;;;;;;11.20;4.20;;;;;;;8.08;72.73;100333.55;103310;1313;97248;-72
2021/11/09 10:42:55;;;;;;;8.10;3.70;;;;;;;8.11;72.77;100338.71;103112;1316;132823;-73
2021/11/09 10:45:28;;;;;;;;;;;;;;;8.12;72.86;100341.83;103261;1313;96977;-72
2021/11/09 10:48:03;;;;;;;11.50;4.60;;;;;;;8.13;72.88;100349.05;103301;1313;96530;-73
2021/11/09 10:50:40;;;;;;;12.90;4.30;;;;;;;8.16;72.82;100352.77;103226;1317;110214;-73
2021/11/09 10:53:20;;;;;;;7.80;3.60;;;;;;;8.19;72.75;100359.73;103169;1314;97725;-76
2021/11/09 11:04:40;;;;;;;14.50;5.30;;;;;;;8.26;72.66;100368.29;103048;1319;110148;-73
2021/11/09 11:07:14;;;;;;;11.50;4.80;;;;;;;8.27;72.62;100366.63;103245;1314;94273;-74
2021/11/09 11:10:03;;;;;;;15.30;5.40;;;;;;;8.30;72.54;100368.30;103115;1320;108795;-73
2021/11/09 11:12:30;;;;;;;13.00;4.90;;;;;;;8.33;72.80;100371.68;103233;1313;96651;-73
2021/11/09 11:15:09;;;;;;;12.00;4.20;;;;;;;8.37;72.56;100373.13;103318;1313;97216;-74
2021/11/09 11:17:41;;;;;;;14.60;4.80;;;;;;;8.39;72.65;100374.96;103333;1314;109958;-72
2021/11/09 11:20:09;;;;;;;10.70;4.30;;;;;;;8.41;72.53;100376.15;103133;1310;96833;-74
2021/11/09 11:22:38;;;;;;;11.70;4.50;;;;;;;8.43;72.46;100378.70;103010;1319;107830;-72
2021/11/09 11:25:08;;;;;;;10.60;4.60;;;;;;;8.47;72.70;100382.42;103205;1316;96901;-73
2021/11/09 11:27:40;;;;;;;26.40;14.00;;;;;;;8.53;72.64;100388.23;102896;1317;94621;-74
2021/11/09 11:30:08;;;;;;;43.50;24.50;;;;;;;8.58;72.59;100393.11;103192;1313;112238;-71
2021/11/09 11:32:36;;;;;;;20.40;8.00;;;;;;;8.64;72.63;100397.83;103194;1313;96386;-72
2021/11/09 11:35:09;;;;;;;13.90;5.60;;;;;;;8.68;72.55;100403.30;103308;1320;105863;-73
2021/11/09 11:37:42;;;;;;;14.30;5.30;;;;;;;8.69;72.56;100406.48;103309;1317;94414;-72
2021/11/09 11:40:14;;;;;;;11.60;4.90;;;;;;;8.68;72.57;100408.06;103275;1314;96512;-71
2021/11/09 11:42:43;;;;;;;9.80;4.40;;;;;;;8.69;72.45;100412.10;103181;1314;109955;-72
2021/11/09 11:45:11;;;;;;;10.70;4.80;;;;;;;8.67;72.28;100420.33;103076;1313;96518;-72
2021/11/09 11:47:40;;;;;;;15.50;5.10;;;;;;;8.66;72.37;100422.83;103077;1316;107957;-75
2021/11/09 11:50:13;;;;;;;;;;;;;;;8.70;72.34;100423.93;103176;1313;96535;-74
2021/11/09 11:52:49;;;;;;;14.90;4.90;;;;;;;8.70;72.40;100425.69;103947;1313;94227;-73
2021/11/09 11:55:24;;;;;;;11.00;4.10;;;;;;;8.71;72.41;100425.11;103252;1313;110165;-73
2021/11/09 11:57:59;;;;;;;13.60;5.00;;;;;;;8.69;72.30;100426.43;103271;1314;94415;-72
2021/11/09 12:00:30;;;;;;;;;;;;;;;8.70;72.29;100426.40;103155;1313;107902;-72
2021/11/09 12:03:02;;;;;;;11.80;4.50;;;;;;;8.66;72.24;100423.19;103239;1313;96597;-73
2021/11/09 12:05:36;;;;;;;12.10;4.30;;;;;;;8.65;72.21;100421.65;103150;1314;96515;-72
2021/11/09 12:08:06;;;;;;;9.80;4.20;;;;;;;8.64;72.25;100418.84;103281;1316;110316;-72
2021/11/09 12:10:52;;;;;;;17.10;4.80;;;;;;;8.65;72.06;100421.13;103280;1313;97245;-70
2021/11/09 12:13:22;;;;;;;13.40;5.00;;;;;;;8.64;72.02;100414.63;103158;1317;107899;-71
2021/11/09 12:16:02;;;;;;;15.20;5.00;;;;;;;8.68;72.05;100416.75;103292;1313;94828;-71
2021/11/09 12:18:51;;;;;;;13.00;4.30;;;;;;;8.73;72.06;100418.45;102884;1316;95642;-72
2021/11/09 12:21:19;;;;;;;8.70;3.80;;;;;;;8.81;71.98;100419.91;103010;1316;110182;-71
2021/11/09 12:24:22;;;;;;;10.00;3.90;;;;;;;8.87;72.08;100422.98;103244;1313;96552;-72
2021/11/09 12:26:59;;;;;;;9.90;4.00;;;;;;;9.00;72.01;100430.24;102777;1322;107811;-71
2021/11/09 12:29:54;;;;;;;11.40;4.40;;;;;;;9.07;71.87;100427.06;103309;1316;96530;-71
2021/11/09 12:32:26;;;;;;;11.80;4.60;;;;;;;9.11;71.77;100431.85;103090;1316;96647;-71
2021/11/09 12:35:02;;;;;;;10.70;4.40;;;;;;;9.12;71.72;100433.75;103104;1316;110318;-72
2021/11/09 12:37:40;;;;;;;10.20;4.30;;;;;;;9.17;71.71;100431.44;102968;1316;96552;-72
2021/11/09 12:40:46;;;;;;;10.70;4.50;;;;;;;9.19;71.68;100436.77;103263;1316;107867;-72
2021/11/09 12:43:14;;;;;;;12.70;4.70;;;;;;;9.22;71.79;100434.18;103105;1319;94256;-71
2021/11/09 12:45:46;;;;;;;8.80;4.20;;;;;;;9.24;71.63;100435.69;103287;1317;96596;-72
2021/11/09 12:48:39;;;;;;;12.30;4.50;;;;;;;9.24;71.63;100435.86;103235;1314;110177;-71
2021/11/09 12:51:11;;;;;;;12.50;4.30;;;;;;;9.25;71.55;100434.95;103216;1316;96690;-72
2021/11/09 12:53:44;;;;;;;11.30;4.00;;;;;;;9.23;71.47;100436.27;103272;1314;107426;-71
2021/11/09 12:56:38;;;;;;;11.10;4.30;;;;;;;9.20;71.46;100440.45;103148;1322;96623;-71
2021/11/09 12:59:19;;;;;;;10.20;3.60;;;;;;;9.19;71.35;100441.42;103360;1316;96654;-72
2021/11/09 13:04:45;;;;;;;11.50;4.30;;;;;;;9.11;71.40;100447.61;103359;1313;94696;-71
2021/11/09 13:07:35;;;;;;;11.90;4.50;;;;;;;9.08;71.25;100452.14;103248;1313;107797;-70
2021/11/09 13:10:19;;;;;;;15.50;5.60;;;;;;;9.06;71.21;100454.34;103090;1316;96671;-72
2021/11/09 13:12:52;;;;;;;;;;;;;;;9.06;71.20;100459.46;103121;1317;96466;-70
2021/11/09 13:15:23;;;;;;;11.20;4.60;;;;;;;9.03;71.11;100462.47;103125;1317;110229;-71
2021/11/09 13:18:04;;;;;;;16.20;5.80;;;;;;;9.02;71.14;100464.45;103372;1321;95731;-69
2021/11/09 13:20:48;;;;;;;15.70;5.60;;;;;;;9.02;71.06;100468.70;103171;1316;107889;-71
2021/11/09 13:23:24;;;;;;;12.90;4.70;;;;;;;9.02;70.93;100469.92;103227;1319;96548;-72
2021/11/09 13:25:55;;;;;;;15.80;4.80;;;;;;;9.01;70.86;100472.98;103463;1319;96560;-70
2021/11/09 13:28:36;;;;;;;11.20;4.40;;;;;;;9.02;70.99;100473.27;103426;1314;108620;-72
2021/11/09 13:31:15;;;;;;;10.60;4.40;;;;;;;9.05;70.82;100473.18;103162;1316;97923;-72
2021/11/09 13:33:49;;;;;;;9.20;3.50;;;;;;;9.06;70.85;100475.95;103158;1317;107829;-71
2021/11/09 13:36:22;;;;;;;11.90;4.50;;;;;;;9.06;70.89;100472.41;103396;1316;94384;-71
2021/11/09 13:38:50;;;;;;;13.90;5.00;;;;;;;9.05;70.77;100475.83;103104;1316;97396;-71
2021/11/09 13:41:22;;;;;;;16.60;5.30;;;;;;;9.02;70.64;100473.65;103350;1320;110145;-71
2021/11/09 13:44:02;;;;;;;16.30;4.60;;;;;;;8.98;70.66;100477.89;103300;1314;94258;-72
2021/11/09 13:46:37;;;;;;;10.70;4.30;;;;;;;8.92;70.51;100478.70;103342;1314;107915;-71
2021/11/09 13:49:16;;;;;;;9.90;3.90;;;;;;;8.90;70.53;100483.02;103266;1317;96618;-70
2021/11/09 13:51:58;;;;;;;8.90;3.60;;;;;;;8.87;70.57;100487.21;103303;1313;97011;-71
2021/11/09 13:54:40;;;;;;;9.90;3.80;;;;;;;8.85;70.32;100492.09;103346;1319;109198;-71
2021/11/09 13:57:13;;;;;;;16.70;5.40;;;;;;;8.82;70.33;100491.84;103252;1316;94237;-71
2021/11/09 13:59:45;;;;;;;19.30;6.30;;;;;;;8.79;70.45;100490.90;103286;1320;107799;-71
2021/11/09 14:02:35;;;;;;;15.00;5.20;;;;;;;8.78;70.43;100492.52;103284;1314;94998;-72
2021/11/09 14:07:48;;;;;;;15.00;5.80;;;;;;;8.77;70.43;100499.13;103220;1316;110227;-72
2021/11/09 14:13:55;;;;;;;23.00;9.70;;;;;;;8.74;70.20;100500.48;103231;1316;107429;-72
2021/11/09 14:18:30;;;;;;;31.10;15.40;;;;;;;8.72;70.17;100497.58;103161;1316;94247;-72
2021/11/09 14:21:03;;;;;;;31.50;17.20;;;;;;;8.71;70.16;100502.07;103310;1314;109170;-71
2021/11/09 14:23:37;;;;;;;29.60;15.80;;;;;;;8.70;70.09;100501.91;103200;1313;96621;-72